地図

経路データ

SID SEASON NUMBER BASIN SUBBASIN NAME ISO_TIME NATURE LAT LON WMO_WIND WMO_PRES WMO_AGENCY TRACK_TYPE DIST2LAND LANDFALL IFLAG USA_AGENCY USA_ATCF_ID USA_LAT USA_LON USA_RECORD USA_STATUS USA_WIND USA_PRES USA_SSHS USA_R34_NE USA_R34_SE USA_R34_SW USA_R34_NW USA_R50_NE USA_R50_SE USA_R50_SW USA_R50_NW USA_R64_NE USA_R64_SE USA_R64_SW USA_R64_NW USA_POCI USA_ROCI USA_RMW USA_EYE TOKYO_LAT TOKYO_LON TOKYO_GRADE TOKYO_WIND TOKYO_PRES TOKYO_R50_DIR TOKYO_R50_LONG TOKYO_R50_SHORT TOKYO_R30_DIR TOKYO_R30_LONG TOKYO_R30_SHORT TOKYO_LAND CMA_LAT CMA_LON CMA_CAT CMA_WIND CMA_PRES HKO_LAT HKO_LON HKO_CAT HKO_WIND HKO_PRES NEWDELHI_LAT NEWDELHI_LON NEWDELHI_GRADE NEWDELHI_WIND NEWDELHI_PRES NEWDELHI_CI NEWDELHI_DP NEWDELHI_POCI REUNION_LAT REUNION_LON REUNION_TYPE REUNION_WIND REUNION_PRES REUNION_TNUM REUNION_CI REUNION_RMW REUNION_R34_NE REUNION_R34_SE REUNION_R34_SW REUNION_R34_NW REUNION_R50_NE REUNION_R50_SE REUNION_R50_SW REUNION_R50_NW REUNION_R64_NE REUNION_R64_SE REUNION_R64_SW REUNION_R64_NW BOM_LAT BOM_LON BOM_TYPE BOM_WIND BOM_PRES BOM_TNUM BOM_CI BOM_RMW BOM_R34_NE BOM_R34_SE BOM_R34_SW BOM_R34_NW BOM_R50_NE BOM_R50_SE BOM_R50_SW BOM_R50_NW BOM_R64_NE BOM_R64_SE BOM_R64_SW BOM_R64_NW BOM_ROCI BOM_POCI BOM_EYE BOM_POS_METHOD BOM_PRES_METHOD NADI_LAT NADI_LON NADI_CAT NADI_WIND NADI_PRES WELLINGTON_LAT WELLINGTON_LON WELLINGTON_WIND WELLINGTON_PRES DS824_LAT DS824_LON DS824_STAGE DS824_WIND DS824_PRES TD9636_LAT TD9636_LON TD9636_STAGE TD9636_WIND TD9636_PRES TD9635_LAT TD9635_LON TD9635_WIND TD9635_PRES TD9635_ROCI NEUMANN_LAT NEUMANN_LON NEUMANN_CLASS NEUMANN_WIND NEUMANN_PRES MLC_LAT MLC_LON MLC_CLASS MLC_WIND MLC_PRES USA_GUST BOM_GUST BOM_GUST_PER REUNION_GUST REUNION_GUST_PER USA_SEAHGT USA_SEARAD_NE USA_SEARAD_SE USA_SEARAD_SW USA_SEARAD_NW STORM_SPEED STORM_DIR
1978188N15248 1978 46 EP MM EMILIA 1978-07-06 18:00:00 TS 15.0000 -112.500 25 hurdat_epa main 921 921 O________OO___ hurdat_epa EP051978 15.0000 -112.500 TD 25 -1 15.0000 -112.500 TC 25 15.0000 -112.500 1 25 10 274
1978188N15248 1978 46 EP MM EMILIA 1978-07-06 21:00:00 TS 15.0322 -112.997 main 938 938 P________PP___ EP051978 15.0327 -112.997 TD 30 -1 15.0327 -112.997 TC 30 15.0300 -112.998 1 30 10 270
1978188N15248 1978 46 EP MM EMILIA 1978-07-07 00:00:00 TS 15.0000 -113.500 35 hurdat_epa main 957 957 O________OO___ hurdat_epa EP051978 15.0000 -113.500 TS 35 0 15.0000 -113.500 TC 35 15.0000 -113.500 2 35 10 260
1978188N15248 1978 46 EP MM EMILIA 1978-07-07 03:00:00 TS 14.8665 -114.007 main 988 988 P________PP___ EP051978 14.8649 -114.008 TS 37 0 14.8649 -114.008 TC 37 14.8729 -114.006 2 36 10 253
1978188N15248 1978 46 EP MM EMILIA 1978-07-07 06:00:00 TS 14.6998 -114.501 40 hurdat_epa main 1032 1032 O________OP___ hurdat_epa EP051978 14.7000 -114.500 TS 40 0 14.7000 -114.500 TC 40 14.6989 -114.503 2 37 10 251
1978188N15248 1978 46 EP MM EMILIA 1978-07-07 09:00:00 TS 14.5481 -114.973 main 1076 1076 P________PP___ EP051978 14.5474 -114.973 TS 40 0 14.5474 -114.973 TC 40 14.5505 -114.973 2 38 9 257
1978188N15248 1978 46 EP MM EMILIA 1978-07-07 12:00:00 TS 14.5000 -115.400 40 hurdat_epa main 1098 1098 O________OO___ hurdat_epa EP051978 14.5000 -115.400 TS 40 0 14.5000 -115.400 TC 40 14.5000 -115.400 2 40 8 277
1978188N15248 1978 46 EP MM EMILIA 1978-07-07 15:00:00 TS 14.6378 -115.773 main 1110 1098 P________PP___ EP051978 14.6399 -115.772 TS 40 0 14.6399 -115.772 TC 40 14.6296 -115.776 2 41 8 300
1978188N15248 1978 46 EP MM EMILIA 1978-07-07 18:00:00 TS 14.8929 -116.102 40 hurdat_epa main 1100 1092 O________OP___ hurdat_epa EP051978 14.9000 -116.100 TS 40 0 14.9000 -116.100 TC 40 14.8645 -116.109 2 42 8 311
1978188N15248 1978 46 EP MM EMILIA 1978-07-07 21:00:00 TS 15.1694 -116.409 main 1092 1085 P________PP___ EP051978 15.1699 -116.408 TS 42 0 15.1699 -116.408 TC 42 15.1672 -116.413 2 43 8 316
1978188N15248 1978 46 EP MM EMILIA 1978-07-08 00:00:00 TS 15.5000 -116.700 45 hurdat_epa main 1085 1072 O________OO___ hurdat_epa EP051978 15.5000 -116.700 TS 45 0 15.5000 -116.700 TC 45 15.5000 -116.700 2 45 9 322
1978188N15248 1978 46 EP MM EMILIA 1978-07-08 03:00:00 TS 15.8874 -117.001 main 1072 1062 P________PP___ EP051978 15.9075 -117.007 TS 47 0 15.9075 -117.007 TC 47 15.8072 -116.978 2 46 10 324
1978188N15248 1978 46 EP MM EMILIA 1978-07-08 06:00:00 TS 16.2669 -117.289 50 hurdat_epa main 1062 1062 O________OP___ hurdat_epa EP051978 16.3000 -117.300 TS 50 0 16.3000 -117.300 TC 50 16.1346 -117.243 2 47 8 322
1978188N15248 1978 46 EP MM EMILIA 1978-07-08 09:00:00 TS 16.5398 -117.537 main 1062 1054 P________PP___ EP051978 16.5574 -117.543 TS 50 0 16.5574 -117.543 TC 50 16.4697 -117.512 2 48 7 317
1978188N15248 1978 46 EP MM EMILIA 1978-07-08 12:00:00 TS 16.8000 -117.800 50 hurdat_epa main 1062 1053 O________OO___ hurdat_epa EP051978 16.8000 -117.800 TS 50 0 16.8000 -117.800 TC 50 16.8000 -117.800 2 50 8 317
1978188N15248 1978 46 EP MM EMILIA 1978-07-08 15:00:00 TS 17.1446 -118.128 main 1053 1036 P________PP___ EP051978 17.1500 -118.135 TS 50 0 17.1500 -118.135 TC 50 17.1230 -118.100 2 50 10 316
1978188N15248 1978 46 EP MM EMILIA 1978-07-08 18:00:00 TS 17.4874 -118.485 50 hurdat_epa main 1043 1037 O________OP___ hurdat_epa EP051978 17.5000 -118.500 TS 50 0 17.5000 -118.500 TC 50 17.4368 -118.425 2 50 9 313
1978188N15248 1978 46 EP MM EMILIA 1978-07-08 21:00:00 TS 17.7643 -118.820 main 1037 1037 P________PP___ EP051978 17.7723 -118.828 TS 50 0 17.7723 -118.828 TC 50 17.7322 -118.788 2 50 9 307
1978188N15248 1978 46 EP MM EMILIA 1978-07-09 00:00:00 TS 18.0000 -119.200 50 hurdat_epa main 1049 1048 O________OO___ hurdat_epa EP051978 18.0000 -119.200 TS 50 0 18.0000 -119.200 TC 50 18.0000 -119.200 2 50 9 299
1978188N15248 1978 46 EP MM EMILIA 1978-07-09 03:00:00 TS 18.2085 -119.670 main 1070 1069 P________PP___ EP051978 18.2075 -119.670 TS 52 0 18.2075 -119.670 TC 52 18.2126 -119.671 2 50 10 293
1978188N15248 1978 46 EP MM EMILIA 1978-07-09 06:00:00 TS 18.4000 -120.198 55 hurdat_epa main 1092 1092 O________OP___ hurdat_epa EP051978 18.4000 -120.200 TS 55 0 18.4000 -120.200 TC 55 18.4001 -120.191 2 50 11 290
1978188N15248 1978 46 EP MM EMILIA 1978-07-09 09:00:00 TS 18.5794 -120.742 main 1118 1118 P________PP___ EP051978 18.5774 -120.743 TS 52 0 18.5774 -120.743 TC 52 18.5875 -120.740 2 50 11 291
1978188N15248 1978 46 EP MM EMILIA 1978-07-09 12:00:00 TS 18.8000 -121.300 50 hurdat_epa main 1153 1153 O________OO___ hurdat_epa EP051978 18.8000 -121.300 TS 50 0 18.8000 -121.300 TC 50 18.8000 -121.300 2 50 12 298
1978188N15248 1978 46 EP MM EMILIA 1978-07-09 15:00:00 TS 19.1273 -121.850 main 1185 1176 P________PP___ EP051978 19.1423 -121.850 TS 47 0 19.1423 -121.850 TC 47 19.0670 -121.851 2 46 12 303
1978188N15248 1978 46 EP MM EMILIA 1978-07-09 18:00:00 TS 19.4725 -122.402 45 hurdat_epa main 1185 1185 O________OP___ hurdat_epa EP051978 19.5000 -122.400 TS 45 0 19.5000 -122.400 TC 45 19.3623 -122.408 2 42 12 300
1978188N15248 1978 46 EP MM EMILIA 1978-07-09 21:00:00 TS 19.7352 -122.958 main 1208 1199 P________PP___ EP051978 19.7499 -122.958 TS 40 0 19.7499 -122.958 TC 40 19.6764 -122.961 2 38 12 297
1978188N15248 1978 46 EP MM EMILIA 1978-07-10 00:00:00 TS 20.0000 -123.500 35 hurdat_epa main 1218 1217 O________OO___ hurdat_epa EP051978 20.0000 -123.500 TS 35 0 20.0000 -123.500 TC 35 20.0000 -123.500 2 35 12 301
1978188N15248 1978 46 EP MM EMILIA 1978-07-10 03:00:00 TS 20.3389 -124.010 main 1231 1223 P________PP___ EP051978 20.3423 -124.008 TS 32 -1 20.3423 -124.008 TC 32 20.3254 -124.019 2 33 12 306
1978188N15248 1978 46 EP MM EMILIA 1978-07-10 06:00:00 TS 20.6922 -124.503 30 hurdat_epa main 1239 1239 O________OP___ hurdat_epa EP051978 20.7000 -124.500 TD 30 -1 20.7000 -124.500 TC 30 20.6508 -124.521 2 32 11 307
1978188N15248 1978 46 EP MM EMILIA 1978-07-10 09:00:00 TS 21.0171 -124.988 main 1258 1251 P________PP___ EP051978 21.0222 -124.985 TD 30 -1 21.0222 -124.985 TC 30 20.9758 -125.013 2 31 11 303
1978188N15248 1978 46 EP MM EMILIA 1978-07-10 12:00:00 TS 21.3000 -125.500 30 hurdat_epa main 1279 1279 O________OO___ hurdat_epa EP051978 21.3000 -125.500 TD 30 -1 21.3000 -125.500 TC 30 21.3000 -125.500 1 30 11 296
1978188N15248 1978 46 EP MM EMILIA 1978-07-10 15:00:00 TS 21.5181 -126.080 main 1317 1317 P________P____ EP051978 21.5181 -126.080 TD 27 -1 21.5181 -126.080 TC 27 1 12 290
1978188N15248 1978 46 EP MM EMILIA 1978-07-10 18:00:00 TS 21.7000 -126.700 25 hurdat_epa main 1357 O________O____ hurdat_epa EP051978 21.7000 -126.700 TD 25 -1 21.7000 -126.700 TC 25 1 12 288

IBTrACS Databaseについて

本データベースは、米国NOAAが公開する1842年以降の世界の熱帯低気圧のベストトラックデータアーカイブInternational Best Track Archive for Climate Stewardship (IBTrACS)を、ウェブで閲覧しやすい形式に変換したものです。

最終更新日:2021-10-08